Time;durP1;ratioP1;P1;durP2;ratioP2;P2;SDS_P1;SDS_P2;PMS_P1;PMS_P2;Temp;Humidity;BMP_temperature;BMP_pressure;BME280_temperature;BME280_humidity;BME280_pressure;Samples;Min_cycle;Max_cycle;Signal;HPM_P1;HPM_P2
2023/09/15 00:01:39;;;;;;;6.60;5.13;;;;;;;;;;5070154;28;20035;-70
2023/09/15 00:04:06;;;;;;;10.52;5.28;;;;;;;;;;5111366;28;20027;-70
2023/09/15 00:06:37;;;;;;;8.02;5.10;;;;;;;;;;5081567;28;20399;-70
2023/09/15 00:09:15;;;;;;;7.97;5.70;;;;;;;;;;5007503;28;20113;-70
2023/09/15 00:11:42;;;;;;;8.82;5.32;;;;;;;;;;5073528;28;20046;-70
2023/09/15 00:14:12;;;;;;;9.00;4.70;;;;;;;;;;5111739;28;20027;-70
2023/09/15 00:16:40;;;;;;;9.38;5.30;;;;;;;;;;5111354;28;20032;-69
2023/09/15 00:19:07;;;;;;;10.45;5.32;;;;;;;;;;5111724;28;20026;-70
2023/09/15 00:21:34;;;;;;;6.45;4.70;;;;;;;;;;5079157;28;20499;-70
2023/09/15 00:24:01;;;;;;;9.05;4.97;;;;;;;;;;5007881;28;20037;-70
2023/09/15 00:26:31;;;;;;;7.15;5.15;;;;;;;;;;5058887;28;20032;-70
2023/09/15 00:28:57;;;;;;;9.43;5.18;;;;;;;;;;5110370;28;20094;-70
2023/09/15 00:31:23;;;;;;;9.30;5.55;;;;;;;;;;5111635;28;20032;-69
2023/09/15 00:33:49;;;;;;;8.70;5.32;;;;;;;;;;5113919;28;20374;-71
2023/09/15 00:36:15;;;;;;;7.57;5.50;;;;;;;;;;5112528;28;20404;-70
2023/09/15 00:38:41;;;;;;;9.45;5.78;;;;;;;;;;5114099;28;20019;-69
2023/09/15 00:41:07;;;;;;;8.23;5.45;;;;;;;;;;5042999;28;20452;-69
2023/09/15 00:43:33;;;;;;;7.90;5.65;;;;;;;;;;5007685;28;20484;-70
2023/09/15 00:45:59;;;;;;;6.93;4.93;;;;;;;;;;5067189;28;20038;-70
2023/09/15 00:48:26;;;;;;;6.88;5.10;;;;;;;;;;5126932;27;20019;-69
2023/09/15 00:50:52;;;;;;;7.97;5.53;;;;;;;;;;5110512;28;20040;-69
2023/09/15 00:53:20;;;;;;;8.73;5.97;;;;;;;;;;5111898;28;20070;-71
2023/09/15 00:55:47;;;;;;;8.73;5.03;;;;;;;;;;5113073;28;20040;-70
2023/09/15 00:58:15;;;;;;;7.90;5.55;;;;;;;;;;5113772;28;20035;-70
2023/09/15 01:00:43;;;;;;;8.13;6.00;;;;;;;;;;5026186;28;20061;-70
2023/09/15 01:03:11;;;;;;;6.72;5.40;;;;;;;;;;5011060;28;20042;-69
2023/09/15 01:05:41;;;;;;;9.88;5.45;;;;;;;;;;5010361;28;20034;-70
2023/09/15 01:08:08;;;;;;;12.00;5.80;;;;;;;;;;5010292;28;20086;-70
2023/09/15 01:10:34;;;;;;;10.35;5.78;;;;;;;;;;5026704;28;20128;-70
2023/09/15 01:13:00;;;;;;;7.95;5.72;;;;;;;;;;5011911;28;20038;-69
2023/09/15 01:15:51;;;;;;;10.07;6.13;;;;;;;;;;5010266;28;20026;-69
2023/09/15 01:18:33;;;;;;;9.80;5.47;;;;;;;;;;5011602;28;20034;-70
2023/09/15 01:21:22;;;;;;;8.95;5.32;;;;;;;;;;5009918;28;20041;-70
2023/09/15 01:24:25;;;;;;;8.90;5.15;;;;;;;;;;5009788;28;20056;-70
2023/09/15 01:27:29;;;;;;;6.13;4.65;;;;;;;;;;5009819;28;20048;-70
2023/09/15 01:29:57;;;;;;;;;;;;;;;;;;5034229;28;20114;-70
2023/09/15 01:32:25;;;;;;;8.95;5.63;;;;;;;;;;5009693;28;19913;-70
2023/09/15 01:34:52;;;;;;;12.00;5.70;;;;;;;;;;4993535;28;20030;-69
2023/09/15 01:37:19;;;;;;;6.78;4.78;;;;;;;;;;5010925;28;20109;-69
2023/09/15 01:39:45;;;;;;;11.57;5.53;;;;;;;;;;5009557;28;20030;-70
2023/09/15 01:42:11;;;;;;;8.43;6.03;;;;;;;;;;5009650;28;20022;-70
2023/09/15 01:44:37;;;;;;;9.95;5.50;;;;;;;;;;5009605;28;20044;-70
2023/09/15 01:47:06;;;;;;;11.25;5.30;;;;;;;;;;5009467;28;20026;-70
2023/09/15 01:49:32;;;;;;;7.75;5.28;;;;;;;;;;5010929;28;20264;-69
2023/09/15 01:51:59;;;;;;;9.73;5.63;;;;;;;;;;5010746;28;20034;-69
2023/09/15 01:54:26;;;;;;;10.52;5.32;;;;;;;;;;5009371;28;20057;-70
2023/09/15 01:56:52;;;;;;;11.05;5.40;;;;;;;;;;5010492;28;20051;-69
2023/09/15 01:59:18;;;;;;;10.20;5.80;;;;;;;;;;5009278;28;20030;-69
2023/09/15 02:01:44;;;;;;;10.50;5.45;;;;;;;;;;4992845;28;20028;-69
2023/09/15 02:04:10;;;;;;;12.52;5.93;;;;;;;;;;5009098;28;20045;-69
2023/09/15 02:06:36;;;;;;;10.90;5.82;;;;;;;;;;5009543;28;20023;-69
2023/09/15 02:09:04;;;;;;;13.13;6.47;;;;;;;;;;5009323;28;20038;-69
2023/09/15 02:11:30;;;;;;;11.90;7.00;;;;;;;;;;5009253;28;20523;-70
2023/09/15 02:13:56;;;;;;;12.10;7.10;;;;;;;;;;5008782;28;20117;-68
2023/09/15 02:16:21;;;;;;;15.43;6.72;;;;;;;;;;5009728;28;20109;-68
2023/09/15 02:18:47;;;;;;;11.60;6.10;;;;;;;;;;5009534;28;20041;-70
2023/09/15 02:21:13;;;;;;;9.02;6.43;;;;;;;;;;5009791;28;20037;-70
2023/09/15 02:23:39;;;;;;;10.95;6.40;;;;;;;;;;5009305;28;20037;-69
2023/09/15 02:26:05;;;;;;;10.48;6.40;;;;;;;;;;5009039;28;20026;-71
2023/09/15 02:28:31;;;;;;;9.18;6.18;;;;;;;;;;5008901;28;20076;-70
2023/09/15 02:30:57;;;;;;;15.68;6.57;;;;;;;;;;5010043;28;20033;-70
2023/09/15 02:33:23;;;;;;;9.80;6.80;;;;;;;;;;5010075;28;20052;-70
2023/09/15 02:35:50;;;;;;;19.75;7.50;;;;;;;;;;5008843;28;20025;-70
2023/09/15 02:38:16;;;;;;;12.98;6.35;;;;;;;;;;5008880;28;20041;-69
2023/09/15 02:40:43;;;;;;;11.70;7.13;;;;;;;;;;4992422;28;20029;-70
2023/09/15 02:43:09;;;;;;;13.10;7.43;;;;;;;;;;5008559;28;20041;-70
2023/09/15 02:45:35;;;;;;;10.82;6.90;;;;;;;;;;5008542;28;20033;-70
2023/09/15 02:48:05;;;;;;;13.25;7.55;;;;;;;;;;5008015;28;20117;-70
2023/09/15 02:50:32;;;;;;;12.48;7.43;;;;;;;;;;5008147;28;20026;-70
2023/09/15 02:52:59;;;;;;;14.80;7.75;;;;;;;;;;5007994;28;20098;-70
2023/09/15 02:55:26;;;;;;;15.55;8.25;;;;;;;;;;5008348;28;20105;-70
2023/09/15 02:57:53;;;;;;;11.45;6.75;;;;;;;;;;5008155;28;20038;-70
2023/09/15 03:00:20;;;;;;;11.18;7.75;;;;;;;;;;5008124;28;20112;-70
2023/09/15 03:02:47;;;;;;;10.32;6.50;;;;;;;;;;5008143;28;20040;-70
2023/09/15 03:05:13;;;;;;;17.10;9.50;;;;;;;;;;5009394;28;20052;-70
2023/09/15 03:07:40;;;;;;;19.48;9.48;;;;;;;;;;5007760;28;20030;-69
2023/09/15 03:10:09;;;;;;;15.00;9.30;;;;;;;;;;5007997;28;20029;-70
2023/09/15 03:12:37;;;;;;;15.07;8.30;;;;;;;;;;5008294;28;20029;-70
2023/09/15 03:15:05;;;;;;;15.18;9.15;;;;;;;;;;5007636;28;20086;-70
2023/09/15 03:17:35;;;;;;;20.95;9.95;;;;;;;;;;5009111;28;20030;-70
2023/09/15 03:20:12;;;;;;;17.33;9.13;;;;;;;;;;5004383;28;20026;-71
2023/09/15 03:22:40;;;;;;;17.63;8.75;;;;;;;;;;5007208;28;20034;-71
2023/09/15 03:25:07;;;;;;;24.08;9.68;;;;;;;;;;5006992;28;20034;-71
2023/09/15 03:27:32;;;;;;;19.10;9.18;;;;;;;;;;5006917;28;20494;-71
2023/09/15 03:29:58;;;;;;;15.23;8.68;;;;;;;;;;5008433;28;20055;-71
2023/09/15 03:32:24;;;;;;;11.85;8.70;;;;;;;;;;5007486;28;20065;-70
2023/09/15 03:34:50;;;;;;;14.38;7.70;;;;;;;;;;4990849;28;20498;-70
2023/09/15 03:37:16;;;;;;;12.60;7.55;;;;;;;;;;5005220;28;20448;-70
2023/09/15 03:39:43;;;;;;;12.27;7.32;;;;;;;;;;4997251;28;20021;-71
2023/09/15 03:42:09;;;;;;;11.98;6.78;;;;;;;;;;5007067;28;20384;-71
2023/09/15 03:44:34;;;;;;;12.90;7.18;;;;;;;;;;5007633;28;20159;-71
2023/09/15 03:47:00;;;;;;;22.38;8.48;;;;;;;;;;5007144;28;20083;-71
2023/09/15 03:49:26;;;;;;;14.88;7.68;;;;;;;;;;5006653;28;20026;-70
2023/09/15 03:51:52;;;;;;;9.48;7.07;;;;;;;;;;5006333;28;20102;-72
2023/09/15 03:54:18;;;;;;;18.73;8.63;;;;;;;;;;5007474;28;20029;-69
2023/09/15 03:56:44;;;;;;;29.50;11.40;;;;;;;;;;5006585;28;20478;-71
2023/09/15 03:59:10;;;;;;;23.10;9.05;;;;;;;;;;5043829;28;20028;-71
2023/09/15 04:01:35;;;;;;;22.23;8.55;;;;;;;;;;5108959;28;20031;-71
2023/09/15 04:04:02;;;;;;;22.95;8.07;;;;;;;;;;5109489;28;20389;-70
2023/09/15 04:06:28;;;;;;;42.63;13.95;;;;;;;;;;5109305;28;20027;-72
2023/09/15 04:08:55;;;;;;;22.85;9.88;;;;;;;;;;5105505;28;20393;-72
2023/09/15 04:11:21;;;;;;;22.67;8.48;;;;;;;;;;5108793;28;20035;-72
2023/09/15 04:13:47;;;;;;;23.17;8.40;;;;;;;;;;5109080;28;20035;-71
2023/09/15 04:16:12;;;;;;;22.02;8.25;;;;;;;;;;5108695;28;20066;-70
2023/09/15 04:18:38;;;;;;;26.08;7.88;;;;;;;;;;5109163;28;20051;-70
2023/09/15 04:21:04;;;;;;;17.60;7.25;;;;;;;;;;5108673;28;20493;-70
2023/09/15 04:23:30;;;;;;;16.02;7.65;;;;;;;;;;5109023;28;20042;-69
2023/09/15 04:25:56;;;;;;;19.63;8.52;;;;;;;;;;5100034;28;20031;-70
2023/09/15 04:28:22;;;;;;;20.75;7.50;;;;;;;;;;5111145;28;20319;-69
2023/09/15 04:30:48;;;;;;;21.05;7.53;;;;;;;;;;5108933;28;20124;-71
2023/09/15 04:33:15;;;;;;;22.85;8.05;;;;;;;;;;5108508;28;20024;-71
2023/09/15 04:35:40;;;;;;;32.22;9.85;;;;;;;;;;5108477;28;20043;-71
2023/09/15 04:38:07;;;;;;;36.95;9.93;;;;;;;;;;5112819;28;20097;-70
2023/09/15 04:40:33;;;;;;;44.70;10.30;;;;;;;;;;5029980;28;20033;-71
2023/09/15 04:43:02;;;;;;;28.17;9.60;;;;;;;;;;5009669;28;20475;-70
2023/09/15 04:45:29;;;;;;;20.77;8.18;;;;;;;;;;5074231;28;20031;-70
2023/09/15 04:47:56;;;;;;;15.13;7.85;;;;;;;;;;5112971;28;20122;-71
2023/09/15 04:50:23;;;;;;;19.48;7.45;;;;;;;;;;5113659;28;20415;-70
2023/09/15 04:52:52;;;;;;;40.63;9.75;;;;;;;;;;5113383;28;20097;-70
2023/09/15 04:55:19;;;;;;;16.13;7.25;;;;;;;;;;5113577;28;20031;-71
2023/09/15 04:57:46;;;;;;;20.23;6.78;;;;;;;;;;5113131;28;20028;-71
2023/09/15 05:00:21;;;;;;;13.18;6.68;;;;;;;;;;5113443;28;20519;-71
2023/09/15 05:02:47;;;;;;;12.30;7.13;;;;;;;;;;5113503;28;20100;-70
2023/09/15 05:05:14;;;;;;;19.02;8.00;;;;;;;;;;5113254;28;20019;-70
2023/09/15 05:07:40;;;;;;;37.88;8.95;;;;;;;;;;5020492;28;20054;-71
2023/09/15 05:10:08;;;;;;;16.90;7.50;;;;;;;;;;5009260;28;20030;-70
2023/09/15 05:12:34;;;;;;;18.23;7.35;;;;;;;;;;5009058;28;20090;-70
2023/09/15 05:15:00;;;;;;;17.80;6.68;;;;;;;;;;5009359;28;20125;-69
2023/09/15 05:17:26;;;;;;;22.67;5.93;;;;;;;;;;5010058;28;20408;-70
2023/09/15 05:19:55;;;;;;;20.58;6.28;;;;;;;;;;5009375;28;20117;-70
2023/09/15 05:22:22;;;;;;;8.82;5.18;;;;;;;;;;5009328;28;20037;-70
2023/09/15 05:24:48;;;;;;;15.00;5.13;;;;;;;;;;5008887;28;20108;-71
2023/09/15 05:27:16;;;;;;;9.93;4.80;;;;;;;;;;5008762;28;20379;-70
2023/09/15 05:29:43;;;;;;;13.07;6.32;;;;;;;;;;5008503;28;20045;-70
2023/09/15 05:32:09;;;;;;;13.88;5.80;;;;;;;;;;4992804;28;20061;-70
2023/09/15 05:34:36;;;;;;;7.78;5.35;;;;;;;;;;5008795;28;20033;-70
2023/09/15 05:37:03;;;;;;;14.35;6.03;;;;;;;;;;5009593;28;20034;-71
2023/09/15 05:39:30;;;;;;;19.05;7.18;;;;;;;;;;5008461;28;20030;-70
2023/09/15 05:41:57;;;;;;;12.90;5.78;;;;;;;;;;5007366;28;20036;-70
2023/09/15 05:44:23;;;;;;;13.93;5.57;;;;;;;;;;5009544;28;20046;-70
2023/09/15 05:46:49;;;;;;;9.93;5.13;;;;;;;;;;5009896;28;20044;-71
2023/09/15 05:49:15;;;;;;;15.73;5.90;;;;;;;;;;5003717;28;20499;-71
2023/09/15 05:51:40;;;;;;;9.80;5.05;;;;;;;;;;5007029;28;20034;-71
2023/09/15 05:54:07;;;;;;;6.95;4.95;;;;;;;;;;5010001;28;20113;-70
2023/09/15 05:56:33;;;;;;;10.55;5.32;;;;;;;;;;5009550;28;20528;-71
2023/09/15 05:58:59;;;;;;;9.55;5.30;;;;;;;;;;5009939;28;20034;-70
2023/09/15 06:01:24;;;;;;;8.23;5.20;;;;;;;;;;5009664;28;20030;-71
2023/09/15 06:03:50;;;;;;;14.25;6.45;;;;;;;;;;5009349;28;20128;-71
2023/09/15 06:06:16;;;;;;;7.18;5.20;;;;;;;;;;5009914;28;20025;-71
2023/09/15 06:08:42;;;;;;;35.50;8.05;;;;;;;;;;5009530;28;20532;-71
2023/09/15 06:11:08;;;;;;;10.38;5.80;;;;;;;;;;5009533;28;20121;-71
2023/09/15 06:13:34;;;;;;;9.82;5.75;;;;;;;;;;5009439;28;20037;-71
2023/09/15 06:16:00;;;;;;;10.40;6.57;;;;;;;;;;5009215;28;20068;-70
2023/09/15 06:18:26;;;;;;;9.15;5.65;;;;;;;;;;5009877;28;20061;-70
2023/09/15 06:20:56;;;;;;;9.18;5.63;;;;;;;;;;5009608;28;20041;-71
2023/09/15 06:23:22;;;;;;;9.80;6.28;;;;;;;;;;5009457;28;20041;-69
2023/09/15 06:25:48;;;;;;;11.38;6.75;;;;;;;;;;5009511;28;20159;-70
2023/09/15 06:28:14;;;;;;;12.35;6.05;;;;;;;;;;5009127;28;20054;-72
2023/09/15 06:30:40;;;;;;;12.98;6.13;;;;;;;;;;5008631;28;20028;-70
2023/09/15 06:33:06;;;;;;;14.85;6.80;;;;;;;;;;5008041;28;20079;-70
2023/09/15 06:35:31;;;;;;;11.30;6.70;;;;;;;;;;5008605;28;20122;-72
2023/09/15 06:37:57;;;;;;;26.88;7.50;;;;;;;;;;5008864;28;20096;-71
2023/09/15 06:40:23;;;;;;;20.98;7.32;;;;;;;;;;5008793;28;20075;-70
2023/09/15 06:42:49;;;;;;;13.75;6.28;;;;;;;;;;5009145;28;20440;-71
2023/09/15 06:45:14;;;;;;;11.60;7.25;;;;;;;;;;5009157;28;20018;-70
2023/09/15 06:47:40;;;;;;;15.95;8.00;;;;;;;;;;5009451;28;20034;-71
2023/09/15 06:50:06;;;;;;;11.98;7.22;;;;;;;;;;5008914;28;20032;-70
2023/09/15 06:52:32;;;;;;;14.93;7.70;;;;;;;;;;5009056;28;20072;-70
2023/09/15 06:54:57;;;;;;;12.55;7.47;;;;;;;;;;5008914;28;20058;-72
2023/09/15 06:57:23;;;;;;;13.25;7.75;;;;;;;;;;5008546;28;20036;-71
2023/09/15 06:59:49;;;;;;;27.02;8.25;;;;;;;;;;5009222;28;20424;-70
2023/09/15 07:02:15;;;;;;;28.35;8.73;;;;;;;;;;5007953;28;20082;-71
2023/09/15 07:04:43;;;;;;;21.05;7.80;;;;;;;;;;5009332;28;20360;-70
2023/09/15 07:07:10;;;;;;;21.02;7.28;;;;;;;;;;5008910;28;20026;-70
2023/09/15 07:09:35;;;;;;;9.00;6.45;;;;;;;;;;5050458;28;20022;-70
2023/09/15 07:12:01;;;;;;;10.77;6.70;;;;;;;;;;5008611;28;20034;-71
2023/09/15 07:14:27;;;;;;;9.32;6.72;;;;;;;;;;5008946;28;20018;-69
2023/09/15 07:16:53;;;;;;;11.25;6.63;;;;;;;;;;5008610;28;20077;-70
2023/09/15 07:19:19;;;;;;;11.00;6.88;;;;;;;;;;5008662;28;20052;-70
2023/09/15 07:21:45;;;;;;;10.00;6.43;;;;;;;;;;5008763;28;20033;-70
2023/09/15 07:24:11;;;;;;;15.43;7.43;;;;;;;;;;5008617;28;20053;-70
2023/09/15 07:26:37;;;;;;;11.63;6.30;;;;;;;;;;5009121;28;20022;-69
2023/09/15 07:29:06;;;;;;;12.93;6.80;;;;;;;;;;5008138;28;20545;-70
2023/09/15 07:31:36;;;;;;;14.18;6.38;;;;;;;;;;5008687;28;20402;-71
2023/09/15 07:34:02;;;;;;;14.10;6.07;;;;;;;;;;5008975;28;20430;-71
2023/09/15 07:36:29;;;;;;;11.82;6.00;;;;;;;;;;5008177;28;20486;-71
2023/09/15 07:38:55;;;;;;;12.68;6.50;;;;;;;;;;5006939;28;20042;-71
2023/09/15 07:41:20;;;;;;;13.27;6.00;;;;;;;;;;5007270;28;20026;-69
2023/09/15 07:43:47;;;;;;;11.70;5.65;;;;;;;;;;5008532;28;20041;-70
2023/09/15 07:46:16;;;;;;;9.30;7.43;;;;;;;;;;5008669;28;20061;-70
2023/09/15 07:48:43;;;;;;;8.10;5.07;;;;;;;;;;5008157;28;20384;-71
2023/09/15 07:51:11;;;;;;;7.88;4.97;;;;;;;;;;5007984;28;20105;-70
2023/09/15 07:53:36;;;;;;;11.38;5.00;;;;;;;;;;5007988;28;20066;-71
2023/09/15 07:56:02;;;;;;;5.90;4.80;;;;;;;;;;5008286;28;20057;-72
2023/09/15 07:58:28;;;;;;;8.45;4.90;;;;;;;;;;5008092;28;20111;-69
2023/09/15 08:00:54;;;;;;;11.93;5.05;;;;;;;;;;5008196;28;20132;-71
2023/09/15 08:03:20;;;;;;;10.15;4.93;;;;;;;;;;5008050;28;20030;-71
2023/09/15 08:05:47;;;;;;;9.07;4.78;;;;;;;;;;5008182;28;20401;-70
2023/09/15 08:08:13;;;;;;;12.25;4.90;;;;;;;;;;5007546;28;20037;-71
2023/09/15 08:10:39;;;;;;;8.10;4.10;;;;;;;;;;5007948;28;20026;-70
2023/09/15 08:13:04;;;;;;;10.70;5.15;;;;;;;;;;5010551;28;20426;-70
2023/09/15 08:15:30;;;;;;;7.53;5.15;;;;;;;;;;5026319;28;20028;-70
2023/09/15 08:17:56;;;;;;;9.70;5.18;;;;;;;;;;5011115;28;20111;-70
2023/09/15 08:20:22;;;;;;;10.15;4.97;;;;;;;;;;5009713;28;20034;-70
2023/09/15 08:22:48;;;;;;;7.80;5.55;;;;;;;;;;5011368;28;20406;-70
2023/09/15 08:25:14;;;;;;;9.43;4.88;;;;;;;;;;5009885;28;20383;-70
2023/09/15 08:27:44;;;;;;;9.68;5.10;;;;;;;;;;5011162;28;20034;-71
2023/09/15 08:30:10;;;;;;;8.38;4.70;;;;;;;;;;5010788;28;20033;-71
2023/09/15 08:32:36;;;;;;;10.57;4.75;;;;;;;;;;5011232;28;20050;-70
2023/09/15 08:35:03;;;;;;;10.30;4.38;;;;;;;;;;5011474;28;20071;-70
2023/09/15 08:37:30;;;;;;;11.02;4.32;;;;;;;;;;5011418;28;20635;-70
2023/09/15 08:39:55;;;;;;;4.50;3.53;;;;;;;;;;5011338;28;20537;-72
2023/09/15 08:42:28;;;;;;;9.77;3.80;;;;;;;;;;5011170;28;20513;-70
2023/09/15 08:44:56;;;;;;;5.80;3.78;;;;;;;;;;5011173;28;20167;-70
2023/09/15 08:47:24;;;;;;;4.63;3.28;;;;;;;;;;5011185;28;20119;-70
2023/09/15 08:49:51;;;;;;;8.00;3.80;;;;;;;;;;5010576;28;20090;-70
2023/09/15 08:52:20;;;;;;;7.97;3.72;;;;;;;;;;5011125;28;20045;-70
2023/09/15 08:54:46;;;;;;;7.53;3.40;;;;;;;;;;5010557;28;20030;-71
2023/09/15 08:57:12;;;;;;;7.10;3.53;;;;;;;;;;5010493;28;20024;-71
2023/09/15 08:59:40;;;;;;;7.57;3.42;;;;;;;;;;5010862;28;20113;-72
2023/09/15 09:02:10;;;;;;;7.85;3.80;;;;;;;;;;5010531;28;20117;-71
2023/09/15 09:04:36;;;;;;;16.05;3.80;;;;;;;;;;5010927;28;20034;-70
2023/09/15 09:07:03;;;;;;;7.00;3.10;;;;;;;;;;5010559;28;20026;-71
2023/09/15 09:09:30;;;;;;;10.30;3.67;;;;;;;;;;5010635;28;20475;-71
2023/09/15 09:11:56;;;;;;;9.02;3.47;;;;;;;;;;5010187;28;20090;-71
2023/09/15 09:14:22;;;;;;;5.43;3.00;;;;;;;;;;5010036;28;20049;-71
2023/09/15 09:16:48;;;;;;;8.48;3.42;;;;;;;;;;5010385;28;20032;-70
2023/09/15 09:19:14;;;;;;;7.03;3.40;;;;;;;;;;5010502;28;20046;-71
2023/09/15 09:21:40;;;;;;;6.88;3.67;;;;;;;;;;5010201;28;20129;-71
2023/09/15 09:24:07;;;;;;;8.25;3.58;;;;;;;;;;5009981;28;20113;-71
2023/09/15 09:26:32;;;;;;;9.38;3.58;;;;;;;;;;5010211;28;20022;-71
2023/09/15 09:28:58;;;;;;;6.35;3.40;;;;;;;;;;5010634;28;20030;-70
2023/09/15 09:31:26;;;;;;;9.88;3.33;;;;;;;;;;5010040;28;20395;-72
2023/09/15 09:33:53;;;;;;;9.57;3.30;;;;;;;;;;5009513;28;20459;-71
2023/09/15 09:36:19;;;;;;;6.20;3.63;;;;;;;;;;5008632;28;20022;-71
2023/09/15 09:38:47;;;;;;;9.52;3.60;;;;;;;;;;5009850;28;20041;-71
2023/09/15 09:41:15;;;;;;;7.15;3.70;;;;;;;;;;5009791;28;20029;-72
2023/09/15 09:43:43;;;;;;;6.47;3.10;;;;;;;;;;5009966;28;20030;-72
2023/09/15 09:46:10;;;;;;;13.52;8.48;;;;;;;;;;5009298;28;20030;-71
2023/09/15 09:48:37;;;;;;;8.10;3.95;;;;;;;;;;5009924;28;20061;-71
2023/09/15 09:51:04;;;;;;;8.57;3.53;;;;;;;;;;5009311;28;20033;-71
2023/09/15 09:53:32;;;;;;;6.35;3.22;;;;;;;;;;5009432;28;20387;-72
2023/09/15 09:56:00;;;;;;;7.50;2.85;;;;;;;;;;5009475;28;20083;-73
2023/09/15 09:58:26;;;;;;;7.05;3.20;;;;;;;;;;5007031;28;20096;-74
2023/09/15 10:00:52;;;;;;;7.90;3.60;;;;;;;;;;5008497;28;20032;-70
2023/09/15 10:03:19;;;;;;;8.82;3.22;;;;;;;;;;5009269;28;20424;-72
2023/09/15 10:05:45;;;;;;;8.95;3.08;;;;;;;;;;5009526;28;20481;-71
2023/09/15 10:08:11;;;;;;;10.65;3.70;;;;;;;;;;5009633;28;20105;-71
2023/09/15 10:10:41;;;;;;;6.10;2.83;;;;;;;;;;5009592;28;20022;-70
2023/09/15 10:13:08;;;;;;;6.35;2.88;;;;;;;;;;5008897;28;20045;-72
2023/09/15 10:15:40;;;;;;;10.40;3.50;;;;;;;;;;5013948;28;20163;-72
2023/09/15 10:18:07;;;;;;;;;;;;;;;;;;5010379;28;20038;-72
2023/09/15 10:20:35;;;;;;;13.40;3.40;;;;;;;;;;5009849;28;19962;-71
2023/09/15 10:23:01;;;;;;;7.90;2.95;;;;;;;;;;5024284;28;20038;-72
2023/09/15 10:25:41;;;;;;;6.75;2.80;;;;;;;;;;5010142;28;20154;-71
2023/09/15 10:28:08;;;;;;;8.40;3.20;;;;;;;;;;5024768;28;20041;-72
2023/09/15 10:30:37;;;;;;;11.18;3.45;;;;;;;;;;5009473;28;20529;-72
2023/09/15 10:33:05;;;;;;;10.18;3.50;;;;;;;;;;5009746;28;20056;-72
2023/09/15 10:35:32;;;;;;;10.27;3.10;;;;;;;;;;5008762;28;20475;-72
2023/09/15 10:38:02;;;;;;;9.75;3.67;;;;;;;;;;5009396;28;20034;-72
2023/09/15 10:40:48;;;;;;;4.95;3.30;;;;;;;;;;5009234;28;20042;-72
2023/09/15 10:43:19;;;;;;;7.80;2.90;;;;;;;;;;5009135;28;20030;-71
2023/09/15 10:46:02;;;;;;;8.20;3.15;;;;;;;;;;5009361;28;20030;-70
2023/09/15 10:48:51;;;;;;;9.77;3.20;;;;;;;;;;5009006;28;20406;-71
2023/09/15 10:51:18;;;;;;;8.63;3.33;;;;;;;;;;5008585;28;20049;-71
2023/09/15 10:53:59;;;;;;;12.63;3.05;;;;;;;;;;5008889;28;20057;-71
2023/09/15 10:56:25;;;;;;;6.10;2.67;;;;;;;;;;5008925;28;20147;-71
2023/09/15 10:58:51;;;;;;;9.93;3.35;;;;;;;;;;5008827;28;20093;-72
2023/09/15 11:01:19;;;;;;;7.82;2.88;;;;;;;;;;5008651;28;20048;-71
2023/09/15 11:03:45;;;;;;;8.88;2.88;;;;;;;;;;5009295;28;20078;-72
2023/09/15 11:06:13;;;;;;;12.07;2.63;;;;;;;;;;5008771;28;20064;-72
2023/09/15 11:08:39;;;;;;;6.93;2.88;;;;;;;;;;5008365;28;20530;-72
2023/09/15 11:11:11;;;;;;;7.75;2.95;;;;;;;;;;5007155;28;20036;-72
2023/09/15 11:13:39;;;;;;;9.20;3.25;;;;;;;;;;5008391;28;20029;-72
2023/09/15 11:16:06;;;;;;;11.93;3.70;;;;;;;;;;5007408;28;20018;-71
2023/09/15 11:18:33;;;;;;;9.07;3.30;;;;;;;;;;5008959;28;20038;-71
2023/09/15 11:20:59;;;;;;;15.70;2.95;;;;;;;;;;5008865;28;20030;-71
2023/09/15 11:23:25;;;;;;;5.40;2.80;;;;;;;;;;5008660;28;20109;-72
2023/09/15 11:26:09;;;;;;;9.73;3.20;;;;;;;;;;5007974;28;20100;-72
2023/09/15 11:28:35;;;;;;;7.50;3.38;;;;;;;;;;5008504;28;20044;-70
2023/09/15 11:31:04;;;;;;;11.27;3.15;;;;;;;;;;5008248;28;20471;-71
2023/09/15 11:33:30;;;;;;;7.70;2.78;;;;;;;;;;5008502;28;20045;-71
2023/09/15 11:35:57;;;;;;;14.73;3.20;;;;;;;;;;5008475;28;20025;-71
2023/09/15 11:38:23;;;;;;;8.65;2.85;;;;;;;;;;5007556;28;20561;-71
2023/09/15 11:40:50;;;;;;;11.27;3.20;;;;;;;;;;5007865;28;20109;-71
2023/09/15 11:43:24;;;;;;;12.23;3.25;;;;;;;;;;5008913;28;20038;-71
2023/09/15 11:45:51;;;;;;;10.25;3.55;;;;;;;;;;5008663;28;20037;-71
2023/09/15 11:48:20;;;;;;;12.57;3.40;;;;;;;;;;5010877;28;20033;-70
2023/09/15 11:50:47;;;;;;;10.93;3.65;;;;;;;;;;5005951;28;20030;-73
2023/09/15 11:53:12;;;;;;;8.52;3.25;;;;;;;;;;5011652;28;20030;-70
2023/09/15 11:55:38;;;;;;;8.93;2.83;;;;;;;;;;5012153;28;20121;-71
2023/09/15 11:58:04;;;;;;;7.68;3.72;;;;;;;;;;5011009;28;20106;-73
2023/09/15 12:00:32;;;;;;;11.57;3.28;;;;;;;;;;5011250;28;20042;-71
2023/09/15 12:02:59;;;;;;;8.15;3.00;;;;;;;;;;5010544;28;20033;-71
2023/09/15 12:05:28;;;;;;;9.48;3.22;;;;;;;;;;5010114;28;20041;-71
2023/09/15 12:07:53;;;;;;;5.93;2.55;;;;;;;;;;5015467;28;20030;-71
2023/09/15 12:10:25;;;;;;;7.65;3.20;;;;;;;;;;5014948;28;20059;-72
2023/09/15 12:12:59;;;;;;;9.68;3.53;;;;;;;;;;5021949;28;20487;-72
2023/09/15 12:15:26;;;;;;;10.20;2.90;;;;;;;;;;5022936;28;20038;-72
2023/09/15 12:17:52;;;;;;;9.05;3.40;;;;;;;;;;5019386;28;20025;-71
2023/09/15 12:20:22;;;;;;;6.43;3.42;;;;;;;;;;5027197;28;20038;-71
2023/09/15 12:22:52;;;;;;;10.43;3.45;;;;;;;;;;5016317;28;20036;-72
2023/09/15 12:25:19;;;;;;;6.57;3.13;;;;;;;;;;5023318;28;20367;-72
2023/09/15 12:27:46;;;;;;;8.60;3.42;;;;;;;;;;5012559;28;20053;-72
2023/09/15 12:30:13;;;;;;;7.20;3.33;;;;;;;;;;5004954;28;20036;-72
2023/09/15 12:32:39;;;;;;;8.43;3.78;;;;;;;;;;5011488;28;20069;-71
2023/09/15 12:35:14;;;;;;;6.97;2.90;;;;;;;;;;5010996;28;20053;-71
2023/09/15 12:37:42;;;;;;;8.02;3.40;;;;;;;;;;5011138;28;20029;-71
2023/09/15 12:40:08;;;;;;;7.65;3.55;;;;;;;;;;5011082;28;20060;-71
2023/09/15 12:42:35;;;;;;;7.97;3.33;;;;;;;;;;5011216;28;20525;-72
2023/09/15 12:45:01;;;;;;;12.68;3.78;;;;;;;;;;5011607;28;20052;-71
2023/09/15 12:47:27;;;;;;;9.43;3.80;;;;;;;;;;5010323;28;20042;-72
2023/09/15 12:49:52;;;;;;;9.23;3.28;;;;;;;;;;5026620;28;20384;-71
2023/09/15 12:52:18;;;;;;;5.43;3.25;;;;;;;;;;5011221;28;20155;-71
2023/09/15 12:54:43;;;;;;;10.60;3.60;;;;;;;;;;5011470;28;20026;-72
2023/09/15 12:57:09;;;;;;;16.88;4.47;;;;;;;;;;5011270;28;20398;-73
2023/09/15 12:59:35;;;;;;;9.57;3.95;;;;;;;;;;5011138;28;20115;-72
2023/09/15 13:02:01;;;;;;;7.97;3.15;;;;;;;;;;5012168;28;20034;-71
2023/09/15 13:04:26;;;;;;;6.68;3.20;;;;;;;;;;5012944;28;20356;-71
2023/09/15 13:06:57;;;;;;;7.20;3.00;;;;;;;;;;5011921;28;20377;-73
2023/09/15 13:09:24;;;;;;;9.85;3.92;;;;;;;;;;5010169;28;20075;-72
2023/09/15 13:11:50;;;;;;;7.45;3.00;;;;;;;;;;5010534;28;20034;-74
2023/09/15 13:14:17;;;;;;;7.43;3.17;;;;;;;;;;5010726;28;20048;-72
2023/09/15 13:16:42;;;;;;;9.13;2.95;;;;;;;;;;5008813;28;20022;-72
2023/09/15 13:19:08;;;;;;;8.70;2.78;;;;;;;;;;5010299;28;20452;-73
2023/09/15 13:21:34;;;;;;;8.63;2.75;;;;;;;;;;5009447;28;20026;-72
2023/09/15 13:24:00;;;;;;;6.50;3.13;;;;;;;;;;5010197;28;20033;-73
2023/09/15 13:26:27;;;;;;;6.25;3.25;;;;;;;;;;5010339;28;20014;-72
2023/09/15 13:28:53;;;;;;;8.07;2.92;;;;;;;;;;5008709;28;20041;-72
2023/09/15 13:31:19;;;;;;;9.95;2.95;;;;;;;;;;5009844;28;20038;-72
2023/09/15 13:33:46;;;;;;;7.70;3.10;;;;;;;;;;5025301;28;20037;-72
2023/09/15 13:36:12;;;;;;;8.60;2.85;;;;;;;;;;5008310;28;20022;-73
2023/09/15 13:38:38;;;;;;;11.55;2.60;;;;;;;;;;5009907;28;20037;-71
2023/09/15 13:41:05;;;;;;;7.47;3.17;;;;;;;;;;5008807;28;20360;-73
2023/09/15 13:43:31;;;;;;;9.35;2.80;;;;;;;;;;5009446;28;20089;-72
2023/09/15 13:45:57;;;;;;;7.70;2.70;;;;;;;;;;5009845;28;20489;-72
2023/09/15 13:48:23;;;;;;;9.00;2.95;;;;;;;;;;5010065;28;20355;-73
2023/09/15 13:50:50;;;;;;;8.77;3.13;;;;;;;;;;5010328;28;20076;-72
2023/09/15 13:53:15;;;;;;;9.02;2.80;;;;;;;;;;5010422;28;20079;-72
2023/09/15 13:55:41;;;;;;;6.38;2.60;;;;;;;;;;5009640;28;20029;-72
2023/09/15 13:58:07;;;;;;;9.45;2.72;;;;;;;;;;5051432;28;20133;-72
2023/09/15 14:00:33;;;;;;;7.22;2.70;;;;;;;;;;5009633;28;20142;-72
2023/09/15 14:02:59;;;;;;;11.20;2.75;;;;;;;;;;5000771;28;20505;-72
2023/09/15 14:05:25;;;;;;;8.98;3.40;;;;;;;;;;5010276;28;20312;-73
2023/09/15 14:07:50;;;;;;;9.18;3.45;;;;;;;;;;5009973;28;20040;-72
2023/09/15 14:10:17;;;;;;;5.28;2.78;;;;;;;;;;5007005;28;20030;-72
2023/09/15 14:12:44;;;;;;;7.72;2.90;;;;;;;;;;5009734;28;20522;-72
2023/09/15 14:15:10;;;;;;;5.47;2.75;;;;;;;;;;5010368;28;20502;-72
2023/09/15 14:17:39;;;;;;;7.57;3.10;;;;;;;;;;5009971;28;20547;-72
2023/09/15 14:20:05;;;;;;;6.45;3.03;;;;;;;;;;5009446;28;20108;-72
2023/09/15 14:22:31;;;;;;;7.13;2.92;;;;;;;;;;5008469;28;20037;-71
2023/09/15 14:25:03;;;;;;;6.40;3.10;;;;;;;;;;5009666;28;20018;-76
2023/09/15 14:27:29;;;;;;;6.40;2.67;;;;;;;;;;5009823;28;20034;-71
2023/09/15 14:29:55;;;;;;;9.85;2.92;;;;;;;;;;5009613;28;20037;-72
2023/09/15 14:32:20;;;;;;;5.68;2.80;;;;;;;;;;5009715;28;20428;-72
2023/09/15 14:34:46;;;;;;;8.00;2.67;;;;;;;;;;5007904;28;20034;-71
2023/09/15 14:37:12;;;;;;;7.32;3.15;;;;;;;;;;5010134;28;20037;-72
2023/09/15 14:39:38;;;;;;;8.95;2.88;;;;;;;;;;5009402;28;20040;-72